sensor_id;sensor_type;location;lat;lon;timestamp;P1;durP1;ratioP1;P2;durP2;ratioP2
28180;SDS011;15464;50.988;10.318;2023-04-24T00:01:04;1.10;;;1.00;;
28180;SDS011;15464;50.988;10.318;2023-04-24T00:03:34;1.25;;;0.90;;
28180;SDS011;15464;50.988;10.318;2023-04-24T00:06:01;1.15;;;0.98;;
28180;SDS011;15464;50.988;10.318;2023-04-24T00:08:28;1.60;;;0.98;;
28180;SDS011;15464;50.988;10.318;2023-04-24T00:10:56;1.15;;;1.00;;
28180;SDS011;15464;50.988;10.318;2023-04-24T00:13:22;1.25;;;1.08;;
28180;SDS011;15464;50.988;10.318;2023-04-24T00:15:49;1.02;;;0.80;;
28180;SDS011;15464;50.988;10.318;2023-04-24T00:18:16;1.95;;;0.95;;
28180;SDS011;15464;50.988;10.318;2023-04-24T00:20:43;1.63;;;1.00;;
28180;SDS011;15464;50.988;10.318;2023-04-24T00:23:10;1.30;;;1.20;;
28180;SDS011;15464;50.988;10.318;2023-04-24T00:25:36;1.80;;;1.35;;
28180;SDS011;15464;50.988;10.318;2023-04-24T00:28:03;3.25;;;1.10;;
28180;SDS011;15464;50.988;10.318;2023-04-24T00:30:30;2.75;;;1.05;;
28180;SDS011;15464;50.988;10.318;2023-04-24T00:32:57;1.83;;;1.13;;
28180;SDS011;15464;50.988;10.318;2023-04-24T00:35:24;2.00;;;1.05;;
28180;SDS011;15464;50.988;10.318;2023-04-24T00:37:51;1.95;;;1.10;;
28180;SDS011;15464;50.988;10.318;2023-04-24T00:40:17;1.10;;;0.98;;
28180;SDS011;15464;50.988;10.318;2023-04-24T00:42:44;1.85;;;1.33;;
28180;SDS011;15464;50.988;10.318;2023-04-24T00:45:11;1.40;;;0.90;;
28180;SDS011;15464;50.988;10.318;2023-04-24T00:47:38;1.08;;;0.98;;
28180;SDS011;15464;50.988;10.318;2023-04-24T00:50:05;1.58;;;1.00;;
28180;SDS011;15464;50.988;10.318;2023-04-24T00:52:33;2.55;;;1.17;;
28180;SDS011;15464;50.988;10.318;2023-04-24T00:54:59;1.10;;;1.00;;
28180;SDS011;15464;50.988;10.318;2023-04-24T00:57:26;1.23;;;1.05;;
28180;SDS011;15464;50.988;10.318;2023-04-24T00:59:53;3.28;;;1.25;;
28180;SDS011;15464;50.988;10.318;2023-04-24T01:02:21;1.35;;;0.90;;
28180;SDS011;15464;50.988;10.318;2023-04-24T01:04:50;1.63;;;1.10;;
28180;SDS011;15464;50.988;10.318;2023-04-24T01:07:19;1.20;;;1.10;;
28180;SDS011;15464;50.988;10.318;2023-04-24T01:09:47;2.85;;;1.10;;
28180;SDS011;15464;50.988;10.318;2023-04-24T01:12:15;1.67;;;1.00;;
28180;SDS011;15464;50.988;10.318;2023-04-24T01:14:42;1.67;;;1.10;;
28180;SDS011;15464;50.988;10.318;2023-04-24T01:17:09;2.58;;;1.27;;
28180;SDS011;15464;50.988;10.318;2023-04-24T01:19:35;2.60;;;1.20;;
28180;SDS011;15464;50.988;10.318;2023-04-24T01:24:36;1.60;;;1.08;;
28180;SDS011;15464;50.988;10.318;2023-04-24T01:27:03;4.55;;;1.30;;
28180;SDS011;15464;50.988;10.318;2023-04-24T01:29:30;9.57;;;1.30;;
28180;SDS011;15464;50.988;10.318;2023-04-24T01:31:57;2.58;;;0.95;;
28180;SDS011;15464;50.988;10.318;2023-04-24T01:34:25;3.30;;;1.27;;
28180;SDS011;15464;50.988;10.318;2023-04-24T01:36:52;1.23;;;1.13;;
28180;SDS011;15464;50.988;10.318;2023-04-24T01:39:18;2.50;;;1.02;;
28180;SDS011;15464;50.988;10.318;2023-04-24T01:41:46;1.65;;;1.20;;
28180;SDS011;15464;50.988;10.318;2023-04-24T01:44:13;2.85;;;1.17;;
28180;SDS011;15464;50.988;10.318;2023-04-24T01:46:40;1.08;;;0.82;;
28180;SDS011;15464;50.988;10.318;2023-04-24T01:49:07;1.77;;;1.10;;
28180;SDS011;15464;50.988;10.318;2023-04-24T01:51:34;2.47;;;1.05;;
28180;SDS011;15464;50.988;10.318;2023-04-24T01:54:01;4.68;;;1.33;;
28180;SDS011;15464;50.988;10.318;2023-04-24T01:56:31;3.80;;;1.10;;
28180;SDS011;15464;50.988;10.318;2023-04-24T01:59:00;1.38;;;1.27;;
28180;SDS011;15464;50.988;10.318;2023-04-24T02:01:33;2.00;;;1.35;;
28180;SDS011;15464;50.988;10.318;2023-04-24T02:04:02;2.17;;;1.10;;
28180;SDS011;15464;50.988;10.318;2023-04-24T02:06:29;2.38;;;1.27;;
28180;SDS011;15464;50.988;10.318;2023-04-24T02:09:00;4.00;;;1.10;;
28180;SDS011;15464;50.988;10.318;2023-04-24T02:11:28;2.20;;;1.30;;
28180;SDS011;15464;50.988;10.318;2023-04-24T02:13:55;1.75;;;1.05;;
28180;SDS011;15464;50.988;10.318;2023-04-24T02:16:21;1.20;;;1.10;;
28180;SDS011;15464;50.988;10.318;2023-04-24T02:18:48;3.03;;;1.35;;
28180;SDS011;15464;50.988;10.318;2023-04-24T02:21:15;2.20;;;1.20;;
28180;SDS011;15464;50.988;10.318;2023-04-24T02:23:42;1.63;;;1.00;;
28180;SDS011;15464;50.988;10.318;2023-04-24T02:26:09;2.92;;;1.02;;
28180;SDS011;15464;50.988;10.318;2023-04-24T02:28:36;1.65;;;1.08;;
28180;SDS011;15464;50.988;10.318;2023-04-24T02:31:02;1.85;;;1.00;;
28180;SDS011;15464;50.988;10.318;2023-04-24T02:33:29;1.30;;;1.08;;
28180;SDS011;15464;50.988;10.318;2023-04-24T02:35:56;1.65;;;1.20;;
28180;SDS011;15464;50.988;10.318;2023-04-24T02:38:22;3.03;;;1.30;;
28180;SDS011;15464;50.988;10.318;2023-04-24T02:40:49;2.08;;;1.35;;
28180;SDS011;15464;50.988;10.318;2023-04-24T02:43:16;1.77;;;1.30;;
28180;SDS011;15464;50.988;10.318;2023-04-24T02:45:42;1.40;;;1.27;;
28180;SDS011;15464;50.988;10.318;2023-04-24T02:48:09;2.25;;;1.20;;
28180;SDS011;15464;50.988;10.318;2023-04-24T02:50:36;4.22;;;1.40;;
28180;SDS011;15464;50.988;10.318;2023-04-24T02:53:02;2.83;;;1.40;;
28180;SDS011;15464;50.988;10.318;2023-04-24T02:55:29;1.67;;;1.00;;
28180;SDS011;15464;50.988;10.318;2023-04-24T02:57:56;1.40;;;1.15;;
28180;SDS011;15464;50.988;10.318;2023-04-24T03:00:23;1.88;;;1.20;;
28180;SDS011;15464;50.988;10.318;2023-04-24T03:02:49;1.73;;;1.20;;
28180;SDS011;15464;50.988;10.318;2023-04-24T03:05:17;3.15;;;1.10;;
28180;SDS011;15464;50.988;10.318;2023-04-24T03:07:43;1.63;;;1.10;;
28180;SDS011;15464;50.988;10.318;2023-04-24T03:10:11;2.65;;;1.20;;
28180;SDS011;15464;50.988;10.318;2023-04-24T03:12:38;1.20;;;1.10;;
28180;SDS011;15464;50.988;10.318;2023-04-24T03:15:05;2.00;;;1.17;;
28180;SDS011;15464;50.988;10.318;2023-04-24T03:17:32;4.03;;;1.30;;
28180;SDS011;15464;50.988;10.318;2023-04-24T03:19:59;1.95;;;1.20;;
28180;SDS011;15464;50.988;10.318;2023-04-24T03:22:26;2.45;;;1.13;;
28180;SDS011;15464;50.988;10.318;2023-04-24T03:24:52;3.40;;;1.00;;
28180;SDS011;15464;50.988;10.318;2023-04-24T03:27:21;1.48;;;1.20;;
28180;SDS011;15464;50.988;10.318;2023-04-24T03:29:47;4.18;;;0.90;;
28180;SDS011;15464;50.988;10.318;2023-04-24T03:32:14;1.27;;;1.00;;
28180;SDS011;15464;50.988;10.318;2023-04-24T03:34:41;3.17;;;1.35;;
28180;SDS011;15464;50.988;10.318;2023-04-24T03:37:07;1.92;;;1.10;;
28180;SDS011;15464;50.988;10.318;2023-04-24T03:39:34;2.65;;;1.42;;
28180;SDS011;15464;50.988;10.318;2023-04-24T03:42:01;4.63;;;1.30;;
28180;SDS011;15464;50.988;10.318;2023-04-24T03:44:28;2.38;;;1.27;;
28180;SDS011;15464;50.988;10.318;2023-04-24T03:46:54;3.55;;;1.33;;
28180;SDS011;15464;50.988;10.318;2023-04-24T03:49:21;2.28;;;1.30;;
28180;SDS011;15464;50.988;10.318;2023-04-24T03:51:48;2.20;;;1.20;;
28180;SDS011;15464;50.988;10.318;2023-04-24T03:54:14;3.08;;;1.48;;
28180;SDS011;15464;50.988;10.318;2023-04-24T03:56:41;2.17;;;1.20;;
28180;SDS011;15464;50.988;10.318;2023-04-24T03:59:08;1.90;;;1.30;;
28180;SDS011;15464;50.988;10.318;2023-04-24T04:01:34;2.15;;;1.33;;
28180;SDS011;15464;50.988;10.318;2023-04-24T04:04:04;3.08;;;1.20;;
28180;SDS011;15464;50.988;10.318;2023-04-24T04:06:31;3.03;;;1.35;;
28180;SDS011;15464;50.988;10.318;2023-04-24T04:08:58;1.20;;;1.10;;
28180;SDS011;15464;50.988;10.318;2023-04-24T04:11:25;2.22;;;1.10;;
28180;SDS011;15464;50.988;10.318;2023-04-24T04:13:52;3.00;;;1.10;;
28180;SDS011;15464;50.988;10.318;2023-04-24T04:16:19;2.63;;;1.30;;
28180;SDS011;15464;50.988;10.318;2023-04-24T04:18:46;1.42;;;1.20;;
28180;SDS011;15464;50.988;10.318;2023-04-24T04:21:12;1.80;;;0.98;;
28180;SDS011;15464;50.988;10.318;2023-04-24T04:23:39;1.73;;;1.10;;
28180;SDS011;15464;50.988;10.318;2023-04-24T04:26:06;2.08;;;1.10;;
28180;SDS011;15464;50.988;10.318;2023-04-24T04:28:34;1.35;;;1.10;;
28180;SDS011;15464;50.988;10.318;2023-04-24T04:31:01;1.33;;;1.15;;
28180;SDS011;15464;50.988;10.318;2023-04-24T04:33:28;2.08;;;1.05;;
28180;SDS011;15464;50.988;10.318;2023-04-24T04:35:54;1.65;;;1.30;;
28180;SDS011;15464;50.988;10.318;2023-04-24T04:38:23;3.78;;;1.20;;
28180;SDS011;15464;50.988;10.318;2023-04-24T04:40:49;3.42;;;1.15;;
28180;SDS011;15464;50.988;10.318;2023-04-24T04:43:16;2.30;;;1.33;;
28180;SDS011;15464;50.988;10.318;2023-04-24T04:45:42;1.48;;;0.95;;
28180;SDS011;15464;50.988;10.318;2023-04-24T04:48:10;1.92;;;0.88;;
28180;SDS011;15464;50.988;10.318;2023-04-24T04:50:39;1.30;;;0.77;;
28180;SDS011;15464;50.988;10.318;2023-04-24T04:53:06;1.42;;;0.90;;
28180;SDS011;15464;50.988;10.318;2023-04-24T04:55:33;1.92;;;0.77;;
28180;SDS011;15464;50.988;10.318;2023-04-24T04:57:59;1.70;;;1.08;;
28180;SDS011;15464;50.988;10.318;2023-04-24T05:00:27;2.63;;;1.00;;
28180;SDS011;15464;50.988;10.318;2023-04-24T05:02:55;2.15;;;0.93;;
28180;SDS011;15464;50.988;10.318;2023-04-24T05:05:38;2.25;;;1.00;;
28180;SDS011;15464;50.988;10.318;2023-04-24T05:08:07;2.03;;;1.07;;
28180;SDS011;15464;50.988;10.318;2023-04-24T05:10:49;2.28;;;0.90;;
28180;SDS011;15464;50.988;10.318;2023-04-24T05:13:15;1.70;;;1.00;;
28180;SDS011;15464;50.988;10.318;2023-04-24T05:15:47;1.48;;;0.90;;
28180;SDS011;15464;50.988;10.318;2023-04-24T05:18:14;2.90;;;1.38;;
28180;SDS011;15464;50.988;10.318;2023-04-24T05:20:41;2.15;;;1.10;;
28180;SDS011;15464;50.988;10.318;2023-04-24T05:23:10;2.40;;;1.10;;
28180;SDS011;15464;50.988;10.318;2023-04-24T05:25:38;3.20;;;1.10;;
28180;SDS011;15464;50.988;10.318;2023-04-24T05:28:06;5.55;;;1.30;;
28180;SDS011;15464;50.988;10.318;2023-04-24T05:30:33;1.88;;;1.00;;
28180;SDS011;15464;50.988;10.318;2023-04-24T05:33:00;4.78;;;1.48;;
28180;SDS011;15464;50.988;10.318;2023-04-24T05:35:27;1.90;;;1.10;;
28180;SDS011;15464;50.988;10.318;2023-04-24T05:37:54;1.45;;;1.20;;
28180;SDS011;15464;50.988;10.318;2023-04-24T05:40:21;2.53;;;1.08;;
28180;SDS011;15464;50.988;10.318;2023-04-24T05:42:48;3.17;;;1.20;;
28180;SDS011;15464;50.988;10.318;2023-04-24T05:45:14;1.42;;;0.90;;
28180;SDS011;15464;50.988;10.318;2023-04-24T05:47:43;1.10;;;1.00;;
28180;SDS011;15464;50.988;10.318;2023-04-24T05:50:10;2.40;;;1.30;;
28180;SDS011;15464;50.988;10.318;2023-04-24T05:52:37;2.00;;;1.27;;
28180;SDS011;15464;50.988;10.318;2023-04-24T05:55:04;3.75;;;1.30;;
28180;SDS011;15464;50.988;10.318;2023-04-24T05:57:32;1.75;;;1.00;;
28180;SDS011;15464;50.988;10.318;2023-04-24T05:59:59;2.47;;;1.25;;
28180;SDS011;15464;50.988;10.318;2023-04-24T06:02:26;2.20;;;1.00;;
28180;SDS011;15464;50.988;10.318;2023-04-24T06:04:56;2.75;;;1.13;;
28180;SDS011;15464;50.988;10.318;2023-04-24T06:07:24;1.00;;;0.90;;
28180;SDS011;15464;50.988;10.318;2023-04-24T06:09:52;1.27;;;1.13;;
28180;SDS011;15464;50.988;10.318;2023-04-24T06:12:18;1.95;;;1.30;;
28180;SDS011;15464;50.988;10.318;2023-04-24T06:14:45;1.83;;;1.00;;
28180;SDS011;15464;50.988;10.318;2023-04-24T06:17:12;1.88;;;1.17;;
28180;SDS011;15464;50.988;10.318;2023-04-24T06:19:39;1.23;;;0.90;;
28180;SDS011;15464;50.988;10.318;2023-04-24T06:22:07;3.42;;;1.17;;
28180;SDS011;15464;50.988;10.318;2023-04-24T06:24:36;2.22;;;1.33;;
28180;SDS011;15464;50.988;10.318;2023-04-24T06:27:03;2.65;;;0.88;;
28180;SDS011;15464;50.988;10.318;2023-04-24T06:29:29;1.23;;;1.00;;
28180;SDS011;15464;50.988;10.318;2023-04-24T06:31:56;1.73;;;1.20;;
28180;SDS011;15464;50.988;10.318;2023-04-24T06:34:23;2.58;;;1.23;;
28180;SDS011;15464;50.988;10.318;2023-04-24T06:36:50;2.22;;;1.33;;
28180;SDS011;15464;50.988;10.318;2023-04-24T06:39:17;1.50;;;0.93;;
28180;SDS011;15464;50.988;10.318;2023-04-24T06:41:43;1.63;;;1.30;;
28180;SDS011;15464;50.988;10.318;2023-04-24T06:44:10;2.50;;;1.10;;
28180;SDS011;15464;50.988;10.318;2023-04-24T06:46:37;1.98;;;1.20;;
28180;SDS011;15464;50.988;10.318;2023-04-24T06:49:07;1.98;;;1.20;;
28180;SDS011;15464;50.988;10.318;2023-04-24T06:51:37;2.20;;;1.20;;
28180;SDS011;15464;50.988;10.318;2023-04-24T06:54:04;1.73;;;1.20;;
28180;SDS011;15464;50.988;10.318;2023-04-24T06:56:31;1.40;;;1.08;;
28180;SDS011;15464;50.988;10.318;2023-04-24T06:59:00;1.52;;;1.20;;
28180;SDS011;15464;50.988;10.318;2023-04-24T07:01:27;1.25;;;0.93;;
28180;SDS011;15464;50.988;10.318;2023-04-24T07:03:54;2.03;;;1.20;;
28180;SDS011;15464;50.988;10.318;2023-04-24T07:06:21;1.10;;;1.00;;
28180;SDS011;15464;50.988;10.318;2023-04-24T07:08:48;2.65;;;1.10;;
28180;SDS011;15464;50.988;10.318;2023-04-24T07:11:16;1.38;;;1.00;;
28180;SDS011;15464;50.988;10.318;2023-04-24T07:13:42;1.20;;;1.10;;
28180;SDS011;15464;50.988;10.318;2023-04-24T07:16:10;1.75;;;1.20;;
28180;SDS011;15464;50.988;10.318;2023-04-24T07:18:38;1.23;;;1.00;;
28180;SDS011;15464;50.988;10.318;2023-04-24T07:21:06;1.10;;;0.98;;
28180;SDS011;15464;50.988;10.318;2023-04-24T07:23:33;1.30;;;1.00;;
28180;SDS011;15464;50.988;10.318;2023-04-24T07:26:00;2.30;;;0.95;;
28180;SDS011;15464;50.988;10.318;2023-04-24T07:28:26;1.88;;;1.10;;
28180;SDS011;15464;50.988;10.318;2023-04-24T07:30:53;1.30;;;1.20;;
28180;SDS011;15464;50.988;10.318;2023-04-24T07:33:20;1.65;;;1.17;;
28180;SDS011;15464;50.988;10.318;2023-04-24T07:35:47;2.28;;;1.52;;
28180;SDS011;15464;50.988;10.318;2023-04-24T07:38:14;1.67;;;1.40;;
28180;SDS011;15464;50.988;10.318;2023-04-24T07:40:41;1.45;;;1.20;;
28180;SDS011;15464;50.988;10.318;2023-04-24T07:43:08;1.35;;;1.17;;
28180;SDS011;15464;50.988;10.318;2023-04-24T07:45:35;1.73;;;1.30;;
28180;SDS011;15464;50.988;10.318;2023-04-24T07:48:03;1.73;;;1.23;;
28180;SDS011;15464;50.988;10.318;2023-04-24T07:50:31;1.95;;;1.40;;
28180;SDS011;15464;50.988;10.318;2023-04-24T07:52:57;3.13;;;1.55;;
28180;SDS011;15464;50.988;10.318;2023-04-24T07:55:24;2.97;;;1.60;;
28180;SDS011;15464;50.988;10.318;2023-04-24T07:57:53;2.13;;;1.30;;
28180;SDS011;15464;50.988;10.318;2023-04-24T08:00:20;1.85;;;1.40;;
28180;SDS011;15464;50.988;10.318;2023-04-24T08:02:47;2.45;;;1.42;;
28180;SDS011;15464;50.988;10.318;2023-04-24T08:05:14;2.42;;;1.40;;
28180;SDS011;15464;50.988;10.318;2023-04-24T08:07:41;3.15;;;1.48;;
28180;SDS011;15464;50.988;10.318;2023-04-24T08:10:11;1.73;;;1.13;;
28180;SDS011;15464;50.988;10.318;2023-04-24T08:12:38;1.77;;;1.30;;
28180;SDS011;15464;50.988;10.318;2023-04-24T08:15:05;7.07;;;1.70;;
28180;SDS011;15464;50.988;10.318;2023-04-24T08:17:33;1.50;;;1.40;;
28180;SDS011;15464;50.988;10.318;2023-04-24T08:20:04;1.90;;;1.48;;
28180;SDS011;15464;50.988;10.318;2023-04-24T08:22:32;1.33;;;1.20;;
28180;SDS011;15464;50.988;10.318;2023-04-24T08:24:59;2.75;;;1.40;;
28180;SDS011;15464;50.988;10.318;2023-04-24T08:27:26;2.25;;;1.58;;
28180;SDS011;15464;50.988;10.318;2023-04-24T08:29:53;2.08;;;1.40;;
28180;SDS011;15464;50.988;10.318;2023-04-24T08:32:20;1.20;;;1.10;;
28180;SDS011;15464;50.988;10.318;2023-04-24T08:34:47;1.45;;;1.30;;
28180;SDS011;15464;50.988;10.318;2023-04-24T08:37:15;1.55;;;1.33;;
28180;SDS011;15464;50.988;10.318;2023-04-24T08:39:42;2.35;;;1.45;;
28180;SDS011;15464;50.988;10.318;2023-04-24T08:42:09;2.90;;;1.60;;
28180;SDS011;15464;50.988;10.318;2023-04-24T08:44:37;2.28;;;1.55;;
28180;SDS011;15464;50.988;10.318;2023-04-24T08:47:04;4.00;;;2.72;;
28180;SDS011;15464;50.988;10.318;2023-04-24T08:49:31;1.60;;;1.50;;
28180;SDS011;15464;50.988;10.318;2023-04-24T08:51:59;2.65;;;1.70;;
28180;SDS011;15464;50.988;10.318;2023-04-24T08:54:28;1.40;;;1.30;;
28180;SDS011;15464;50.988;10.318;2023-04-24T08:56:57;2.05;;;1.50;;
28180;SDS011;15464;50.988;10.318;2023-04-24T08:59:28;1.95;;;1.48;;
28180;SDS011;15464;50.988;10.318;2023-04-24T09:01:55;3.97;;;1.80;;
28180;SDS011;15464;50.988;10.318;2023-04-24T09:04:23;2.15;;;1.80;;
28180;SDS011;15464;50.988;10.318;2023-04-24T09:06:55;2.30;;;1.70;;
28180;SDS011;15464;50.988;10.318;2023-04-24T09:09:26;2.63;;;1.80;;
28180;SDS011;15464;50.988;10.318;2023-04-24T09:11:55;2.83;;;2.08;;
28180;SDS011;15464;50.988;10.318;2023-04-24T09:14:23;2.13;;;1.92;;
28180;SDS011;15464;50.988;10.318;2023-04-24T09:16:50;3.63;;;2.45;;
28180;SDS011;15464;50.988;10.318;2023-04-24T09:19:17;3.03;;;2.40;;
28180;SDS011;15464;50.988;10.318;2023-04-24T09:21:45;2.35;;;1.88;;
28180;SDS011;15464;50.988;10.318;2023-04-24T09:24:16;6.43;;;2.05;;
28180;SDS011;15464;50.988;10.318;2023-04-24T09:26:44;2.88;;;2.05;;
28180;SDS011;15464;50.988;10.318;2023-04-24T09:29:17;3.42;;;2.58;;
28180;SDS011;15464;50.988;10.318;2023-04-24T09:31:45;3.03;;;2.72;;
28180;SDS011;15464;50.988;10.318;2023-04-24T09:34:12;2.67;;;2.28;;
28180;SDS011;15464;50.988;10.318;2023-04-24T09:36:40;4.15;;;2.80;;
28180;SDS011;15464;50.988;10.318;2023-04-24T09:39:09;3.53;;;2.35;;
28180;SDS011;15464;50.988;10.318;2023-04-24T09:44:21;2.30;;;2.10;;
28180;SDS011;15464;50.988;10.318;2023-04-24T09:49:24;3.30;;;1.77;;
28180;SDS011;15464;50.988;10.318;2023-04-24T09:51:52;2.83;;;2.13;;
28180;SDS011;15464;50.988;10.318;2023-04-24T09:54:28;2.28;;;1.80;;
28180;SDS011;15464;50.988;10.318;2023-04-24T09:56:55;3.28;;;2.10;;
28180;SDS011;15464;50.988;10.318;2023-04-24T09:59:23;3.25;;;2.35;;
28180;SDS011;15464;50.988;10.318;2023-04-24T10:01:49;6.35;;;2.15;;
28180;SDS011;15464;50.988;10.318;2023-04-24T10:04:21;4.05;;;2.22;;
28180;SDS011;15464;50.988;10.318;2023-04-24T10:06:51;3.88;;;2.45;;
28180;SDS011;15464;50.988;10.318;2023-04-24T10:09:21;2.33;;;2.10;;
28180;SDS011;15464;50.988;10.318;2023-04-24T10:11:50;2.40;;;1.80;;
28180;SDS011;15464;50.988;10.318;2023-04-24T10:14:18;2.25;;;1.98;;
28180;SDS011;15464;50.988;10.318;2023-04-24T10:16:47;2.97;;;2.25;;
28180;SDS011;15464;50.988;10.318;2023-04-24T10:19:15;4.50;;;2.30;;
28180;SDS011;15464;50.988;10.318;2023-04-24T10:21:45;2.85;;;2.30;;
28180;SDS011;15464;50.988;10.318;2023-04-24T10:24:14;3.42;;;1.98;;
28180;SDS011;15464;50.988;10.318;2023-04-24T10:26:42;3.40;;;2.40;;
28180;SDS011;15464;50.988;10.318;2023-04-24T10:29:11;2.40;;;2.20;;
28180;SDS011;15464;50.988;10.318;2023-04-24T10:31:39;2.28;;;2.10;;
28180;SDS011;15464;50.988;10.318;2023-04-24T10:34:07;2.42;;;1.75;;
28180;SDS011;15464;50.988;10.318;2023-04-24T10:36:36;2.50;;;2.10;;
28180;SDS011;15464;50.988;10.318;2023-04-24T10:39:07;2.13;;;1.90;;
28180;SDS011;15464;50.988;10.318;2023-04-24T10:41:38;3.40;;;2.17;;
28180;SDS011;15464;50.988;10.318;2023-04-24T10:46:31;1.95;;;1.75;;
28180;SDS011;15464;50.988;10.318;2023-04-24T10:48:59;2.33;;;1.50;;
28180;SDS011;15464;50.988;10.318;2023-04-24T10:51:45;1.70;;;1.60;;
28180;SDS011;15464;50.988;10.318;2023-04-24T10:56:53;3.90;;;1.98;;
28180;SDS011;15464;50.988;10.318;2023-04-24T10:59:49;2.45;;;2.10;;
28180;SDS011;15464;50.988;10.318;2023-04-24T11:04:45;2.65;;;2.28;;
28180;SDS011;15464;50.988;10.318;2023-04-24T11:07:12;1.60;;;1.48;;
28180;SDS011;15464;50.988;10.318;2023-04-24T11:09:39;2.10;;;1.80;;
28180;SDS011;15464;50.988;10.318;2023-04-24T11:12:10;2.00;;;1.80;;
28180;SDS011;15464;50.988;10.318;2023-04-24T11:17:35;3.92;;;1.70;;
28180;SDS011;15464;50.988;10.318;2023-04-24T11:20:08;2.75;;;1.50;;
28180;SDS011;15464;50.988;10.318;2023-04-24T11:25:22;1.50;;;1.17;;
28180;SDS011;15464;50.988;10.318;2023-04-24T11:27:49;2.08;;;1.25;;
28180;SDS011;15464;50.988;10.318;2023-04-24T11:30:17;3.20;;;1.60;;
28180;SDS011;15464;50.988;10.318;2023-04-24T11:32:49;3.38;;;1.33;;
28180;SDS011;15464;50.988;10.318;2023-04-24T11:35:21;1.73;;;1.23;;
28180;SDS011;15464;50.988;10.318;2023-04-24T11:37:54;2.20;;;1.30;;
28180;SDS011;15464;50.988;10.318;2023-04-24T11:40:41;1.50;;;1.38;;
28180;SDS011;15464;50.988;10.318;2023-04-24T11:43:08;2.75;;;1.50;;
28180;SDS011;15464;50.988;10.318;2023-04-24T11:45:36;2.72;;;1.20;;
28180;SDS011;15464;50.988;10.318;2023-04-24T11:48:03;1.83;;;1.40;;
28180;SDS011;15464;50.988;10.318;2023-04-24T11:50:30;1.40;;;1.30;;
28180;SDS011;15464;50.988;10.318;2023-04-24T11:52:57;3.13;;;1.70;;
28180;SDS011;15464;50.988;10.318;2023-04-24T11:55:27;2.33;;;1.60;;
28180;SDS011;15464;50.988;10.318;2023-04-24T11:57:56;2.22;;;1.50;;
28180;SDS011;15464;50.988;10.318;2023-04-24T12:05:32;1.77;;;1.33;;
28180;SDS011;15464;50.988;10.318;2023-04-24T12:07:59;1.95;;;1.30;;
28180;SDS011;15464;50.988;10.318;2023-04-24T12:10:27;1.30;;;1.20;;
28180;SDS011;15464;50.988;10.318;2023-04-24T12:12:55;1.95;;;1.30;;
28180;SDS011;15464;50.988;10.318;2023-04-24T12:15:23;1.77;;;1.10;;
28180;SDS011;15464;50.988;10.318;2023-04-24T12:17:51;1.35;;;0.95;;
28180;SDS011;15464;50.988;10.318;2023-04-24T12:20:23;7.25;;;2.67;;
28180;SDS011;15464;50.988;10.318;2023-04-24T12:22:58;3.90;;;1.38;;
28180;SDS011;15464;50.988;10.318;2023-04-24T12:25:30;17.05;;;1.33;;
28180;SDS011;15464;50.988;10.318;2023-04-24T12:30:33;1.35;;;1.00;;
